LHBP Airport Information

Runway Information
Runway 13L Length 12162 ft width 149 ft
Elevation 495 ft Threshold 0 ft Heading 132
Runway 31R Length 12162 ft Width 149 ft
Elevation 417 ft Threshold 0 ft Heading 312
Runway 13R Length 9875 ft width 149 ft
Elevation 450 ft Threshold 0 ft Heading 132
Runway 31L Length 9875 ft Width 149 ft
Elevation 450 ft Threshold 0 ft Heading 312
Airport Frequencies
Type ACC Name BUDAPEST A Frequency 129.7 MHZ
Type APP Name DIRECTOR Frequency 119.5 MHZ
Type APRS Name Apron Guid Frequency 122.45 MHZ
Type APRW Name Apron Guid Frequency 131.55 MHZ
Type ATIS Name ATIS Frequency 132.375 MHZ
Type CDC Name Delivery Frequency 134.55 MHZ
Type GND Name GND Frequency 121.9 MHZ
Type TWR Name TWR Frequency 118.1 MHZ
Airport Navaids
Type VOR-DME Name Budapest Frequency 117300 KHZ
Type VOR-DME Name Monor Frequency 112500 KHZ
Type NDB Name Monor Frequency 288 KHZ
Type VOR-DME Name Tapiosap Frequency 115900 KHZ
Type NDB Name Tapiosap Frequency 306 KHZ
Airport Weather Information & NOTAM
ADDS - METARS form results

(0758 UTC 22 May 2018)
 
METAR text: LHBP 220730Z 10008KT 060V130 9999 BKN027 19/15 Q1017 NOSIG
Conditions at: LHBP (BUDAPEST/FERIHEG, HU) observed 0730 UTC 22 May 2018
Temperature: 19.0°C (66°F)
Dewpoint: 15.0°C (59°F) [RH = 78%]
Pressure (altimeter): 30.03 inches Hg (1017.0 mb)
Winds: from the E (100 degrees) at 9 MPH (8 knots; 4.2 m/s)
Visibility: 6 or more miles (10+ km)
Ceiling: 2700 feet AGL
Clouds: broken clouds at 2700 feet AGL
Weather: no significant weather observed at this time

METAR text: LHBP 220700Z 10007KT 9999 FEW028 SCT050 19/15 Q1017 NOSIG
Conditions at: LHBP (BUDAPEST/FERIHEG, HU) observed 0700 UTC 22 May 2018
Temperature: 19.0°C (66°F)
Dewpoint: 15.0°C (59°F) [RH = 78%]
Pressure (altimeter): 30.03 inches Hg (1017.0 mb)
Winds: from the E (100 degrees) at 8 MPH (7 knots; 3.6 m/s)
Visibility: 6 or more miles (10+ km)
Ceiling: at least 12,000 feet AGL
Clouds: few clouds at 2800 feet AGL
scattered clouds at 5000 feet AGL
Weather: no significant weather observed at this time